createdAt,value
2022-09-23T00:00:22.467Z,11.89
2022-09-23T00:05:34.825Z,11.81
2022-09-23T00:10:47.135Z,11.75
2022-09-23T00:15:59.360Z,11.52
2022-09-23T00:21:11.678Z,11.38
2022-09-23T00:26:24.003Z,11.24
2022-09-23T00:31:36.424Z,11.27
2022-09-23T00:36:48.773Z,11.34
2022-09-23T00:42:01.080Z,11.39
2022-09-23T00:47:13.498Z,11.45
2022-09-23T00:52:25.947Z,11.44
2022-09-23T00:57:38.196Z,11.43
2022-09-23T01:02:50.663Z,11.4
2022-09-23T01:08:02.905Z,11.29
2022-09-23T01:13:15.625Z,11.2
2022-09-23T01:18:27.957Z,11.12
2022-09-23T01:23:40.302Z,11.04
2022-09-23T01:28:52.820Z,10.98
2022-09-23T01:34:05.023Z,10.92
2022-09-23T01:39:17.380Z,10.9
2022-09-23T01:44:29.990Z,10.85
2022-09-23T01:49:42.404Z,10.83
2022-09-23T01:54:54.694Z,10.78
2022-09-23T02:00:06.956Z,10.8
2022-09-23T02:05:19.271Z,10.82
2022-09-23T02:10:31.527Z,10.8
2022-09-23T02:15:43.721Z,10.66
2022-09-23T02:20:56.036Z,10.44
2022-09-23T02:26:08.422Z,10.35
2022-09-23T02:31:20.867Z,10.18
2022-09-23T02:36:33.214Z,10.14
2022-09-23T02:41:45.493Z,10.21
2022-09-23T02:46:57.873Z,10.25
2022-09-23T02:52:10.480Z,10.26
2022-09-23T02:57:22.824Z,10.27
2022-09-23T03:02:35.299Z,10.31
2022-09-23T03:07:47.756Z,10.36
2022-09-23T03:13:00.210Z,10.32
2022-09-23T03:18:12.308Z,10.15
2022-09-23T03:23:24.753Z,9.96
2022-09-23T03:28:36.981Z,9.74
2022-09-23T03:33:49.371Z,9.59
2022-09-23T03:39:01.825Z,9.51
2022-09-23T03:44:14.165Z,9.48
2022-09-23T03:49:26.566Z,9.55
2022-09-23T03:54:38.881Z,9.66
2022-09-23T03:59:51.368Z,9.83
2022-09-23T04:05:03.493Z,9.91
2022-09-23T04:10:16.044Z,10.02
2022-09-23T04:15:28.501Z,10.13
2022-09-23T04:20:41.024Z,10.23
2022-09-23T04:25:53.328Z,10.22
2022-09-23T04:31:06.071Z,10.2
2022-09-23T04:36:18.194Z,10.18
2022-09-23T04:41:30.608Z,10.03
2022-09-23T04:46:43.116Z,9.97
2022-09-23T04:51:55.463Z,9.9
2022-09-23T04:57:07.783Z,9.79
2022-09-23T05:02:20.367Z,9.76
2022-09-23T05:07:32.660Z,9.74
2022-09-23T05:12:45.220Z,9.71
2022-09-23T05:17:57.631Z,9.68
2022-09-23T05:23:10.034Z,9.69
2022-09-23T05:28:22.670Z,9.73
2022-09-23T05:33:35.094Z,9.8
2022-09-23T05:38:47.494Z,9.85
2022-09-23T05:43:59.824Z,10.02
2022-09-23T05:49:12.304Z,10.17
2022-09-23T05:54:24.761Z,10.24
2022-09-23T05:59:36.979Z,10.3
2022-09-23T06:04:49.288Z,10.39
2022-09-23T06:10:01.624Z,10.48
2022-09-23T06:15:14.003Z,10.63
2022-09-23T06:20:26.569Z,10.8
2022-09-23T06:25:38.898Z,10.92
2022-09-23T06:30:51.451Z,11.05
2022-09-23T06:36:04.158Z,11.17
2022-09-23T06:41:16.694Z,11.22
2022-09-23T06:46:28.961Z,11.25
2022-09-23T06:51:41.293Z,11.3
2022-09-23T06:56:53.655Z,11.36
2022-09-23T07:02:06.163Z,11.47
2022-09-23T07:07:18.666Z,11.66
2022-09-23T07:12:31.251Z,11.87
2022-09-23T07:17:43.793Z,12.08
2022-09-23T07:22:56.342Z,12.25
2022-09-23T07:28:08.715Z,12.38
2022-09-23T07:33:31.298Z,12.5
2022-09-23T07:38:33.510Z,12.63
2022-09-23T07:43:45.828Z,12.77
2022-09-23T07:48:58.161Z,12.91
2022-09-23T07:54:10.685Z,13.01
2022-09-23T07:59:23.087Z,13.05
2022-09-23T08:04:35.309Z,13.07
2022-09-23T08:09:48.089Z,13.09
2022-09-23T08:15:00.471Z,13.19
2022-09-23T08:20:12.703Z,13.38
2022-09-23T08:25:25.150Z,13.58
2022-09-23T08:30:37.667Z,13.62
2022-09-23T08:35:49.856Z,13.66
2022-09-23T08:41:02.245Z,13.81
2022-09-23T08:46:14.600Z,13.95
2022-09-23T08:51:27.018Z,14.04
2022-09-23T08:56:39.275Z,14.13
2022-09-23T09:01:51.656Z,14.31
2022-09-23T09:07:24.860Z,14.47
2022-09-23T09:12:16.734Z,14.68
2022-09-23T09:17:32.980Z,14.91
2022-09-23T09:22:41.684Z,15.12
2022-09-23T09:27:54.135Z,15.28
2022-09-23T09:33:06.544Z,15.5
2022-09-23T09:38:19.059Z,15.78
2022-09-23T09:43:32.328Z,15.96
2022-09-23T09:48:43.627Z,16.06
2022-09-23T09:53:55.997Z,16.25
2022-09-23T09:59:08.375Z,16.47
2022-09-23T10:04:21.016Z,16.74
2022-09-23T10:09:33.367Z,16.93
2022-09-23T10:14:45.732Z,17.1
2022-09-23T10:19:58.014Z,17.37
2022-09-23T10:25:10.542Z,17.59
2022-09-23T10:30:22.984Z,17.86
2022-09-23T10:35:35.489Z,18.18
2022-09-23T10:40:47.905Z,18.37
2022-09-23T10:46:00.602Z,18.58
2022-09-23T10:51:12.882Z,18.75
2022-09-23T10:56:25.100Z,18.89
2022-09-23T11:01:38.507Z,18.94
2022-09-23T11:06:50.788Z,18.99
2022-09-23T11:12:03.264Z,19.11
2022-09-23T11:17:15.761Z,19.15
2022-09-23T11:22:28.046Z,19.14
2022-09-23T11:27:40.272Z,19.26
2022-09-23T11:32:52.856Z,19.49
2022-09-23T11:38:05.083Z,19.7
2022-09-23T11:43:17.358Z,19.83
2022-09-23T11:48:29.914Z,19.89
2022-09-23T11:53:42.038Z,20.06
2022-09-23T11:58:57.773Z,20.28
2022-09-23T12:04:16.129Z,20.58
2022-09-23T12:09:27.211Z,20.99
2022-09-23T12:14:31.825Z,21.36
2022-09-23T12:19:44.318Z,21.62
2022-09-23T12:24:56.634Z,21.79
2022-09-23T12:30:08.841Z,21.79
2022-09-23T12:35:21.439Z,22.06
2022-09-23T12:40:34.025Z,22.6
2022-09-23T12:45:46.405Z,22.97
2022-09-23T12:50:58.910Z,23.14
2022-09-23T12:56:11.212Z,23.17
2022-09-23T13:01:23.761Z,23.32
2022-09-23T13:06:35.877Z,23.26
2022-09-23T13:11:48.406Z,23.32
2022-09-23T13:17:00.898Z,23.67
2022-09-23T13:22:12.974Z,23.77
2022-09-23T13:27:25.276Z,23.94
2022-09-23T13:32:37.692Z,24.15
2022-09-23T13:37:50.252Z,24.48
2022-09-23T13:43:02.401Z,24.74
2022-09-23T13:48:14.759Z,25.16
2022-09-23T13:53:27.221Z,25.48
2022-09-23T13:58:39.389Z,25.69
2022-09-23T14:03:51.534Z,24.87
2022-09-23T14:09:03.720Z,24.18
2022-09-23T14:14:16.018Z,23.98
2022-09-23T14:19:27.883Z,23.31
2022-09-23T14:24:40.228Z,22.91
2022-09-23T14:29:52.548Z,22.69
2022-09-23T14:35:05.032Z,23.13
2022-09-23T14:40:17.868Z,23.82
2022-09-23T14:45:30.390Z,24.12
2022-09-23T14:50:42.518Z,23.95
2022-09-23T14:55:54.882Z,23.63
2022-09-23T15:01:07.118Z,23.4
2022-09-23T15:06:19.505Z,23.27
2022-09-23T15:11:31.865Z,23.17
2022-09-23T15:16:44.380Z,22.9
2022-09-23T15:21:56.596Z,22.57
2022-09-23T15:27:08.937Z,22.39
2022-09-23T15:32:21.333Z,22.15
2022-09-23T15:37:36.252Z,21.86
2022-09-23T15:42:46.303Z,21.65
2022-09-23T15:47:58.599Z,21.46
2022-09-23T15:53:10.957Z,21.19
2022-09-23T15:58:23.270Z,20.99
2022-09-23T16:03:35.491Z,20.9
2022-09-23T16:08:47.928Z,20.89
2022-09-23T16:14:00.372Z,21.01
2022-09-23T16:19:12.671Z,21.05
2022-09-23T16:24:28.129Z,21.02
2022-09-23T16:29:37.340Z,20.88
2022-09-23T16:34:49.449Z,20.72
2022-09-23T16:40:01.758Z,20.41
2022-09-23T16:45:13.791Z,19.9
2022-09-23T16:50:26.071Z,19.6
2022-09-23T16:55:38.373Z,19.35
2022-09-23T17:00:50.939Z,19.12
2022-09-23T17:06:07.319Z,18.92
2022-09-23T17:11:15.494Z,18.78
2022-09-23T17:16:27.845Z,18.63
2022-09-23T17:21:39.936Z,18.49
2022-09-23T17:26:53.344Z,18.32
2022-09-23T17:32:04.685Z,18.17
2022-09-23T17:37:16.891Z,18.04
2022-09-23T17:42:29.346Z,17.9
2022-09-23T17:47:42.045Z,17.75
2022-09-23T17:52:54.293Z,17.66
2022-09-23T17:58:06.623Z,17.53
2022-09-23T18:03:19.037Z,17.47
2022-09-23T18:08:31.248Z,17.33
2022-09-23T18:13:43.473Z,17.17
2022-09-23T18:18:56.050Z,17.06
2022-09-23T18:24:31.139Z,16.95
2022-09-23T18:29:20.650Z,16.85
2022-09-23T18:34:33.103Z,16.83
2022-09-23T18:39:45.417Z,16.8
2022-09-23T18:44:57.933Z,16.77
2022-09-23T18:50:10.383Z,16.71
2022-09-23T18:55:22.888Z,16.62
2022-09-23T19:00:35.448Z,16.56
2022-09-23T19:05:47.653Z,16.49
2022-09-23T19:11:00.272Z,16.37
2022-09-23T19:16:12.561Z,16.3
2022-09-23T19:21:25.163Z,16.21
2022-09-23T19:26:37.927Z,16.14
2022-09-23T19:31:50.383Z,16.07
2022-09-23T19:37:02.829Z,16.08
2022-09-23T19:42:15.317Z,16.26
2022-09-23T19:47:27.683Z,16.38
2022-09-23T19:52:39.906Z,16.18
2022-09-23T19:57:52.898Z,16.04
2022-09-23T20:03:05.093Z,15.87
2022-09-23T20:08:17.563Z,15.68
2022-09-23T20:13:30.277Z,15.59
2022-09-23T20:18:42.690Z,15.5
2022-09-23T20:23:55.142Z,15.4
2022-09-23T20:29:07.627Z,15.34
2022-09-23T20:34:20.490Z,15.31
2022-09-23T20:39:32.830Z,15.22
2022-09-23T20:44:45.236Z,15.14
2022-09-23T20:49:57.779Z,15.11
2022-09-23T20:55:10.228Z,15.09
2022-09-23T21:00:22.722Z,15.04
2022-09-23T21:05:35.158Z,14.99
2022-09-23T21:10:47.813Z,14.92
2022-09-23T21:16:00.134Z,14.83
2022-09-23T21:21:12.429Z,14.75
2022-09-23T21:26:24.813Z,14.74
2022-09-23T21:31:37.025Z,14.72
2022-09-23T21:36:49.400Z,14.68
2022-09-23T21:42:01.699Z,14.67
2022-09-23T21:47:14.213Z,14.64
2022-09-23T21:52:26.480Z,14.61
2022-09-23T21:57:38.936Z,14.61
2022-09-23T22:02:51.238Z,14.64
2022-09-23T22:08:03.488Z,14.68
2022-09-23T22:13:16.194Z,14.7
2022-09-23T22:18:28.540Z,14.75
2022-09-23T22:23:40.920Z,14.81
2022-09-23T22:28:53.444Z,14.84
2022-09-23T22:34:05.653Z,14.75
2022-09-23T22:39:17.887Z,14.64
2022-09-23T22:44:30.231Z,14.58
2022-09-23T22:49:42.736Z,14.53
2022-09-23T22:54:55.072Z,14.4
2022-09-23T23:00:07.382Z,14.32
2022-09-23T23:05:19.935Z,14.33
2022-09-23T23:10:32.346Z,14.31
2022-09-23T23:15:44.690Z,14.36
2022-09-23T23:20:56.875Z,14.46
2022-09-23T23:26:09.895Z,14.55
2022-09-23T23:31:21.464Z,14.53
2022-09-23T23:36:33.647Z,14.46
2022-09-23T23:41:46.088Z,14.43
2022-09-23T23:46:58.609Z,14.44
2022-09-23T23:52:11.139Z,14.46
2022-09-23T23:57:23.358Z,14.43
